createdAt,value
2022-08-30T00:00:20.085Z,1.25
2022-08-30T00:02:48.302Z,1.45
2022-08-30T00:05:18.726Z,1.50
2022-08-30T00:07:46.926Z,1.10
2022-08-30T00:10:15.197Z,1.35
2022-08-30T00:12:43.688Z,1.17
2022-08-30T00:15:15.025Z,1.23
2022-08-30T00:17:43.538Z,1.52
2022-08-30T00:20:14.227Z,1.20
2022-08-30T00:22:42.674Z,1.50
2022-08-30T00:25:12.498Z,1.35
2022-08-30T00:27:44.057Z,1.33
2022-08-30T00:30:18.235Z,1.23
2022-08-30T00:32:46.528Z,1.20
2022-08-30T00:35:17.198Z,1.48
2022-08-30T00:37:45.636Z,1.80
2022-08-30T00:40:16.066Z,1.50
2022-08-30T00:42:45.106Z,1.60
2022-08-30T00:45:24.446Z,1.73
2022-08-30T00:47:53.006Z,1.90
2022-08-30T00:50:26.315Z,1.60
2022-08-30T00:52:57.429Z,1.65
2022-08-30T00:55:26.473Z,1.58
2022-08-30T00:58:00.861Z,1.98
2022-08-30T01:00:32.305Z,1.45
2022-08-30T01:03:00.636Z,1.13
2022-08-30T01:05:29.436Z,1.77
2022-08-30T01:07:57.646Z,1.55
2022-08-30T01:10:26.066Z,1.95
2022-08-30T01:12:54.333Z,1.38
2022-08-30T01:15:22.795Z,1.83
2022-08-30T01:17:52.794Z,1.45
2022-08-30T01:20:26.087Z,1.38
2022-08-30T01:23:15.072Z,1.80
2022-08-30T01:25:46.567Z,1.90
2022-08-30T01:28:17.745Z,1.40
2022-08-30T01:30:46.597Z,1.60
2022-08-30T01:33:15.356Z,1.80
2022-08-30T01:35:48.986Z,1.77
2022-08-30T01:38:22.025Z,1.83
2022-08-30T01:40:50.666Z,1.30
2022-08-30T01:43:20.217Z,2.10
2022-08-30T01:45:48.959Z,1.42
2022-08-30T01:48:17.158Z,1.70
2022-08-30T01:50:45.505Z,1.73
2022-08-30T01:53:13.729Z,1.63
2022-08-30T01:55:43.638Z,1.95
2022-08-30T01:58:12.432Z,1.80
2022-08-30T02:00:40.984Z,1.70
2022-08-30T02:03:09.157Z,1.65
2022-08-30T02:05:37.425Z,1.65
2022-08-30T02:08:06.007Z,1.52
2022-08-30T02:10:34.538Z,2.10
2022-08-30T02:13:04.379Z,2.00
2022-08-30T02:15:41.356Z,1.38
2022-08-30T02:18:11.504Z,1.70
2022-08-30T02:20:40.785Z,2.22
2022-08-30T02:23:09.009Z,1.90
2022-08-30T02:25:37.185Z,1.50
2022-08-30T02:28:07.322Z,1.40
2022-08-30T02:30:36.950Z,1.20
2022-08-30T02:33:05.486Z,1.17
2022-08-30T02:35:33.666Z,1.20
2022-08-30T02:38:01.865Z,1.80
2022-08-30T02:40:30.132Z,2.08
2022-08-30T02:42:58.724Z,1.58
2022-08-30T02:45:28.889Z,1.63
2022-08-30T02:47:57.765Z,2.20
2022-08-30T02:50:26.126Z,1.45
2022-08-30T02:52:55.534Z,2.17
2022-08-30T02:55:24.425Z,1.55
2022-08-30T02:57:52.715Z,1.95
2022-08-30T03:00:22.146Z,1.50
2022-08-30T03:02:51.754Z,1.67
2022-08-30T03:05:20.166Z,1.75
2022-08-30T03:07:48.754Z,1.80
2022-08-30T03:10:17.805Z,1.95
2022-08-30T03:12:48.054Z,1.42
2022-08-30T03:15:17.705Z,2.00
2022-08-30T03:17:45.905Z,1.70
2022-08-30T03:20:15.549Z,1.80
2022-08-30T03:22:43.746Z,2.33
2022-08-30T03:25:12.169Z,1.90
2022-08-30T03:27:40.885Z,2.50
2022-08-30T03:30:10.655Z,2.33
2022-08-30T03:32:38.906Z,2.50
2022-08-30T03:35:08.387Z,2.40
2022-08-30T03:37:38.605Z,1.98
2022-08-30T03:40:09.197Z,2.40
2022-08-30T03:42:39.691Z,2.38
2022-08-30T03:45:12.393Z,2.00
2022-08-30T03:47:41.048Z,2.47
2022-08-30T03:50:11.570Z,2.15
2022-08-30T03:52:41.195Z,2.58
2022-08-30T03:55:09.897Z,2.15
2022-08-30T03:57:43.551Z,1.85
2022-08-30T04:00:13.448Z,2.30
2022-08-30T04:02:42.344Z,2.25
2022-08-30T04:05:11.749Z,2.13
2022-08-30T04:07:43.694Z,1.73
2022-08-30T04:10:12.321Z,2.33
2022-08-30T04:12:40.528Z,1.98
2022-08-30T04:15:11.359Z,2.05
2022-08-30T04:17:39.610Z,1.85
2022-08-30T04:20:09.350Z,1.92
2022-08-30T04:22:38.158Z,1.98
2022-08-30T04:25:13.049Z,2.22
2022-08-30T04:27:44.122Z,2.15
2022-08-30T04:30:13.798Z,2.10
2022-08-30T04:32:42.097Z,2.00
2022-08-30T04:35:11.029Z,2.10
2022-08-30T04:37:40.133Z,2.08
2022-08-30T04:40:11.277Z,2.05
2022-08-30T04:42:39.807Z,1.88
2022-08-30T04:45:10.949Z,1.95
2022-08-30T04:47:40.147Z,1.80
2022-08-30T04:50:09.568Z,2.13
2022-08-30T04:52:38.391Z,2.80
2022-08-30T04:55:08.891Z,2.15
2022-08-30T04:57:40.408Z,3.15
2022-08-30T05:00:12.498Z,2.80
2022-08-30T05:02:41.755Z,2.75
2022-08-30T05:05:28.086Z,2.50
2022-08-30T05:07:57.636Z,2.97
2022-08-30T05:10:27.468Z,3.08
2022-08-30T05:12:57.579Z,3.15
2022-08-30T05:15:25.810Z,3.15
2022-08-30T05:17:53.995Z,3.15
2022-08-30T05:20:22.238Z,2.97
2022-08-30T05:22:53.792Z,3.47
2022-08-30T05:25:23.969Z,2.97
2022-08-30T05:27:52.804Z,3.33
2022-08-30T05:30:23.764Z,3.22
2022-08-30T05:32:52.224Z,2.85
2022-08-30T05:35:25.390Z,2.67
2022-08-30T05:37:54.231Z,3.15
2022-08-30T05:40:23.529Z,3.22
2022-08-30T05:42:52.333Z,3.00
2022-08-30T05:45:20.696Z,2.83
2022-08-30T05:47:50.689Z,2.78
2022-08-30T05:50:19.003Z,3.78
2022-08-30T05:52:47.179Z,3.70
2022-08-30T05:55:15.389Z,3.45
2022-08-30T05:57:43.617Z,3.72
2022-08-30T06:00:15.535Z,3.65
2022-08-30T06:02:44.171Z,4.07
2022-08-30T06:05:14.677Z,3.67
2022-08-30T06:07:43.711Z,4.43
2022-08-30T06:10:12.750Z,3.35
2022-08-30T06:12:41.171Z,3.60
2022-08-30T06:15:10.354Z,3.63
2022-08-30T06:17:39.858Z,3.55
2022-08-30T06:20:09.738Z,3.22
2022-08-30T06:22:39.762Z,3.78
2022-08-30T06:25:09.045Z,4.07
2022-08-30T06:27:37.257Z,3.67
2022-08-30T06:30:08.363Z,3.70
2022-08-30T06:32:36.848Z,3.45
2022-08-30T06:35:05.492Z,3.83
2022-08-30T06:37:34.008Z,4.00
2022-08-30T06:40:05.172Z,4.25
2022-08-30T06:42:34.413Z,4.20
2022-08-30T06:45:11.076Z,3.53
2022-08-30T06:47:41.108Z,3.50
2022-08-30T06:50:12.096Z,4.00
2022-08-30T06:52:42.294Z,3.60
2022-08-30T06:55:13.202Z,3.83
2022-08-30T06:57:41.567Z,3.35
2022-08-30T07:00:12.668Z,3.85
2022-08-30T07:02:41.195Z,3.47
2022-08-30T07:05:14.272Z,3.38
2022-08-30T07:07:46.296Z,3.08
2022-08-30T07:10:17.091Z,3.17
2022-08-30T07:12:45.301Z,3.60
2022-08-30T07:15:14.317Z,3.47
2022-08-30T07:18:00.223Z,3.80
2022-08-30T07:20:39.976Z,3.05
2022-08-30T07:23:09.572Z,2.65
2022-08-30T07:25:40.207Z,3.15
2022-08-30T07:28:09.971Z,2.70
2022-08-30T07:30:38.518Z,3.05
2022-08-30T07:33:06.788Z,3.15
2022-08-30T07:35:35.258Z,3.42
2022-08-30T07:38:03.569Z,2.92
2022-08-30T07:40:31.906Z,3.33
2022-08-30T07:43:02.464Z,2.97
2022-08-30T07:45:30.761Z,3.15
2022-08-30T07:47:58.947Z,3.65
2022-08-30T07:50:27.720Z,3.15
2022-08-30T07:52:55.870Z,3.22
2022-08-30T07:55:24.347Z,3.00
2022-08-30T07:57:52.591Z,3.72
2022-08-30T08:00:22.599Z,3.50
2022-08-30T08:02:50.880Z,2.80
2022-08-30T08:05:22.059Z,3.17
2022-08-30T08:07:52.873Z,3.30
2022-08-30T08:10:21.179Z,3.42
2022-08-30T08:12:49.827Z,2.67
2022-08-30T08:15:22.191Z,3.20
2022-08-30T08:17:50.391Z,2.70
2022-08-30T08:20:18.771Z,3.05
2022-08-30T08:22:47.009Z,3.03
2022-08-30T08:25:16.018Z,3.47
2022-08-30T08:27:44.270Z,3.35
2022-08-30T08:30:13.127Z,2.83
2022-08-30T08:32:44.272Z,3.03
2022-08-30T08:35:12.819Z,3.45
2022-08-30T08:37:41.305Z,2.42
2022-08-30T08:40:14.784Z,3.20
2022-08-30T08:42:55.989Z,2.75
2022-08-30T08:45:40.028Z,3.45
2022-08-30T08:48:13.347Z,3.05
2022-08-30T08:51:02.814Z,2.58
2022-08-30T08:53:46.058Z,2.17
2022-08-30T08:56:16.962Z,3.10
2022-08-30T08:58:48.019Z,3.17
2022-08-30T09:01:18.106Z,2.88
2022-08-30T09:03:48.749Z,2.78
2022-08-30T09:06:28.810Z,2.80
2022-08-30T09:08:57.243Z,3.05
2022-08-30T09:11:28.752Z,2.70
2022-08-30T09:13:57.493Z,2.17
2022-08-30T09:16:52.320Z,2.45
2022-08-30T09:19:41.938Z,2.55
2022-08-30T09:22:22.802Z,2.30
2022-08-30T09:24:54.758Z,2.63
2022-08-30T09:27:34.448Z,2.35
2022-08-30T09:30:08.110Z,2.83
2022-08-30T09:32:45.368Z,2.50
2022-08-30T09:35:22.591Z,2.28
2022-08-30T09:37:55.289Z,3.10
2022-08-30T09:40:30.652Z,2.78
2022-08-30T09:43:08.746Z,2.78
2022-08-30T09:45:44.292Z,2.42
2022-08-30T09:48:33.120Z,2.53
2022-08-30T09:51:31.889Z,2.72
2022-08-30T09:54:18.591Z,2.55
2022-08-30T09:57:01.234Z,2.80
2022-08-30T09:59:42.748Z,3.15
2022-08-30T10:02:37.159Z,2.42
2022-08-30T10:05:16.146Z,2.47
2022-08-30T10:07:55.988Z,2.90
2022-08-30T10:10:32.008Z,2.50
2022-08-30T10:13:13.431Z,2.97
2022-08-30T10:15:51.439Z,3.17
2022-08-30T10:18:26.490Z,2.40
2022-08-30T10:21:02.718Z,2.15
2022-08-30T10:23:38.851Z,2.90
2022-08-30T10:26:14.620Z,2.97
2022-08-30T10:28:52.390Z,2.67
2022-08-30T10:31:28.595Z,2.65
2022-08-30T10:34:02.867Z,3.00
2022-08-30T10:36:38.028Z,2.50
2022-08-30T10:39:11.770Z,2.65
2022-08-30T10:41:47.526Z,2.95
2022-08-30T10:44:21.888Z,2.67
2022-08-30T10:47:07.537Z,2.83
2022-08-30T10:49:40.501Z,2.63
2022-08-30T10:52:22.673Z,2.88
2022-08-30T10:54:56.793Z,2.90
2022-08-30T10:57:26.178Z,2.78
2022-08-30T10:59:59.267Z,3.35
2022-08-30T11:02:50.230Z,2.70
2022-08-30T11:08:44.990Z,3.00
2022-08-30T11:11:23.763Z,2.95
2022-08-30T11:13:56.845Z,3.03
2022-08-30T11:16:38.049Z,3.05
2022-08-30T11:19:16.821Z,2.80
2022-08-30T11:21:48.658Z,2.60
2022-08-30T11:24:21.878Z,2.72
2022-08-30T11:27:00.804Z,2.45
2022-08-30T11:29:42.508Z,2.88
2022-08-30T11:32:46.521Z,2.45
2022-08-30T11:35:48.071Z,2.38
2022-08-30T11:38:42.248Z,2.53
2022-08-30T11:41:12.227Z,2.40
2022-08-30T11:43:56.353Z,2.92
2022-08-30T11:46:40.616Z,3.05
2022-08-30T11:49:39.847Z,2.70
2022-08-30T11:52:26.898Z,2.90
2022-08-30T11:55:28.328Z,2.58
2022-08-30T11:58:07.707Z,2.67
2022-08-30T12:00:42.277Z,2.50
2022-08-30T12:03:32.161Z,2.35
2022-08-30T12:06:03.381Z,2.38
2022-08-30T12:08:59.983Z,2.83
2022-08-30T12:12:03.342Z,2.22
2022-08-30T12:14:52.130Z,2.75
2022-08-30T12:17:52.198Z,2.13
2022-08-30T12:20:26.064Z,2.40
2022-08-30T12:22:56.247Z,2.78
2022-08-30T12:25:31.279Z,2.63
2022-08-30T12:28:14.850Z,2.70
2022-08-30T12:30:43.678Z,2.65
2022-08-30T12:33:28.982Z,2.38
2022-08-30T12:35:59.555Z,2.38
2022-08-30T12:38:29.956Z,2.72
2022-08-30T12:41:02.100Z,2.50
2022-08-30T12:43:40.954Z,2.35
2022-08-30T12:46:15.411Z,2.78
2022-08-30T12:48:45.190Z,2.72
2022-08-30T12:51:36.364Z,2.13
2022-08-30T12:54:14.246Z,2.30
2022-08-30T13:00:01.838Z,2.17
2022-08-30T13:02:44.658Z,2.72
2022-08-30T13:05:47.816Z,2.42
2022-08-30T13:08:21.420Z,2.58
2022-08-30T13:10:54.321Z,2.33
2022-08-30T13:13:44.277Z,2.30
2022-08-30T13:16:29.421Z,2.45
2022-08-30T13:19:23.427Z,2.90
2022-08-30T13:21:53.294Z,2.38
2022-08-30T13:24:25.185Z,2.40
2022-08-30T13:26:55.543Z,2.55
2022-08-30T13:29:28.123Z,2.35
2022-08-30T13:31:57.338Z,2.05
2022-08-30T13:34:25.618Z,2.95
2022-08-30T13:36:56.727Z,2.53
2022-08-30T13:39:25.697Z,2.38
2022-08-30T13:41:54.993Z,2.40
2022-08-30T13:44:44.987Z,2.55
2022-08-30T13:47:34.490Z,2.72
2022-08-30T13:50:03.521Z,2.83
2022-08-30T13:52:31.787Z,2.17
2022-08-30T13:55:00.091Z,2.60
2022-08-30T14:00:22.513Z,2.60
2022-08-30T14:02:57.491Z,2.75
2022-08-30T14:11:11.485Z,2.70
2022-08-30T14:14:14.684Z,2.83
2022-08-30T14:16:31.596Z,2.63
2022-08-30T14:19:01.383Z,2.67
2022-08-30T14:21:30.251Z,2.75
2022-08-30T14:23:59.770Z,2.47
2022-08-30T14:26:32.234Z,2.80
2022-08-30T14:29:01.313Z,2.58
2022-08-30T14:31:32.795Z,2.40
2022-08-30T14:34:02.038Z,2.95
2022-08-30T14:36:32.331Z,2.67
2022-08-30T14:39:00.620Z,2.55
2022-08-30T14:41:28.838Z,2.28
2022-08-30T14:43:57.318Z,2.88
2022-08-30T14:46:26.967Z,2.50
2022-08-30T14:48:57.059Z,2.63
2022-08-30T14:51:25.505Z,2.63
2022-08-30T14:53:55.479Z,2.67
2022-08-30T14:56:25.098Z,2.22
2022-08-30T14:59:00.429Z,2.53
2022-08-30T15:01:29.903Z,2.65
2022-08-30T15:04:00.611Z,2.80
2022-08-30T15:06:30.472Z,2.70
2022-08-30T15:08:59.340Z,2.28
2022-08-30T15:11:27.893Z,2.63
2022-08-30T15:13:57.802Z,2.40
2022-08-30T15:16:29.135Z,2.67
2022-08-30T15:19:00.121Z,2.80
2022-08-30T15:21:31.881Z,2.58
2022-08-30T15:24:03.305Z,2.72
2022-08-30T15:26:38.714Z,2.55
2022-08-30T15:29:08.118Z,2.80
2022-08-30T15:31:46.387Z,2.80
2022-08-30T15:34:21.972Z,2.15
2022-08-30T15:36:56.521Z,2.65
2022-08-30T15:39:25.874Z,2.97
2022-08-30T15:42:00.603Z,2.70
2022-08-30T15:44:30.274Z,2.35
2022-08-30T15:46:58.913Z,2.50
2022-08-30T15:49:29.107Z,2.60
2022-08-30T15:52:02.171Z,2.95
2022-08-30T15:54:31.101Z,2.60
2022-08-30T15:57:00.239Z,2.58
2022-08-30T15:59:31.283Z,2.40
2022-08-30T16:01:59.747Z,2.60
2022-08-30T16:04:29.523Z,2.95
2022-08-30T16:06:58.220Z,2.65
2022-08-30T16:09:30.222Z,2.45
2022-08-30T16:12:01.453Z,2.55
2022-08-30T16:14:29.706Z,2.92
2022-08-30T16:16:58.488Z,3.15
2022-08-30T16:19:29.687Z,2.55
2022-08-30T16:21:57.969Z,2.40
2022-08-30T16:24:26.511Z,2.75
2022-08-30T16:26:54.818Z,2.70
2022-08-30T16:29:23.139Z,2.92
2022-08-30T16:31:51.467Z,2.33
2022-08-30T16:34:21.077Z,2.47
2022-08-30T16:36:50.873Z,2.88
2022-08-30T16:39:19.758Z,2.42
2022-08-30T16:41:48.578Z,2.92
2022-08-30T16:44:17.871Z,3.10
2022-08-30T16:46:52.624Z,2.60
2022-08-30T16:49:22.902Z,2.47
2022-08-30T16:51:52.992Z,2.90
2022-08-30T16:54:21.343Z,2.88
2022-08-30T16:56:49.629Z,3.03
2022-08-30T16:59:18.957Z,2.30
2022-08-30T17:04:35.562Z,2.72
2022-08-30T17:07:07.648Z,3.05
2022-08-30T17:09:42.423Z,2.50
2022-08-30T17:12:10.568Z,2.60
2022-08-30T17:14:38.977Z,3.15
2022-08-30T17:17:07.247Z,2.78
2022-08-30T17:19:41.210Z,2.97
2022-08-30T17:22:14.171Z,2.92
2022-08-30T17:24:42.660Z,2.72
2022-08-30T17:27:11.865Z,2.47
2022-08-30T17:29:40.028Z,2.60
2022-08-30T17:32:08.417Z,2.90
2022-08-30T17:34:37.271Z,2.72
2022-08-30T17:37:06.127Z,2.97
2022-08-30T17:39:36.169Z,3.00
2022-08-30T17:42:05.193Z,3.38
2022-08-30T17:44:41.973Z,3.10
2022-08-30T17:47:11.051Z,2.97
2022-08-30T17:49:39.884Z,2.92
2022-08-30T17:52:08.216Z,2.95
2022-08-30T17:54:42.249Z,2.50
2022-08-30T17:57:12.016Z,3.13
2022-08-30T17:59:41.402Z,2.75
2022-08-30T18:02:11.390Z,3.00
2022-08-30T18:04:41.640Z,3.10
2022-08-30T18:07:11.975Z,2.60
2022-08-30T18:09:43.016Z,3.13
2022-08-30T18:12:12.211Z,3.00
2022-08-30T18:14:40.561Z,3.25
2022-08-30T18:17:09.255Z,3.40
2022-08-30T18:19:46.191Z,3.15
2022-08-30T18:22:15.336Z,3.00
2022-08-30T18:24:45.596Z,2.60
2022-08-30T18:27:13.958Z,2.97
2022-08-30T18:29:42.388Z,2.92
2022-08-30T18:32:11.320Z,2.67
2022-08-30T18:34:42.449Z,2.85
2022-08-30T18:37:11.527Z,3.30
2022-08-30T18:39:41.315Z,2.90
2022-08-30T18:42:10.922Z,3.40
2022-08-30T18:44:40.006Z,2.97
2022-08-30T18:47:09.701Z,3.08
2022-08-30T18:49:38.822Z,2.75
2022-08-30T18:52:09.931Z,2.53
2022-08-30T18:54:40.814Z,3.22
2022-08-30T18:57:10.974Z,2.85
2022-08-30T18:59:41.798Z,3.03
2022-08-30T19:02:15.708Z,2.75
2022-08-30T19:04:47.244Z,2.95
2022-08-30T19:07:18.408Z,2.97
2022-08-30T19:09:47.114Z,2.45
2022-08-30T19:12:17.246Z,3.60
2022-08-30T19:14:46.207Z,2.47
2022-08-30T19:17:14.920Z,3.05
2022-08-30T19:19:47.448Z,3.60
2022-08-30T19:22:18.838Z,2.90
2022-08-30T19:24:47.947Z,3.22
2022-08-30T19:27:37.192Z,3.38
2022-08-30T19:30:07.816Z,3.20
2022-08-30T19:32:37.108Z,2.83
2022-08-30T19:35:05.922Z,3.10
2022-08-30T19:37:34.389Z,2.67
2022-08-30T19:40:03.676Z,3.10
2022-08-30T19:42:33.423Z,3.22
2022-08-30T19:45:01.605Z,2.42
2022-08-30T19:47:30.025Z,3.78
2022-08-30T19:49:58.177Z,3.80
2022-08-30T19:52:30.581Z,3.40
2022-08-30T19:55:00.037Z,2.85
2022-08-30T19:57:28.606Z,2.63
2022-08-30T19:59:59.856Z,3.17
2022-08-30T20:02:28.859Z,3.17
2022-08-30T20:04:58.147Z,3.38
2022-08-30T20:07:27.521Z,2.70
2022-08-30T20:09:56.665Z,2.88
2022-08-30T20:12:25.218Z,2.85
2022-08-30T20:14:53.556Z,2.47
2022-08-30T20:17:34.075Z,2.42
2022-08-30T20:20:17.247Z,3.33
2022-08-30T20:22:50.634Z,2.83
2022-08-30T20:24:23.857Z,2.90
2022-08-30T20:25:22.688Z,2.40
2022-08-30T20:27:50.966Z,2.15
2022-08-30T20:30:19.665Z,2.58
2022-08-30T20:32:49.567Z,2.40
2022-08-30T20:35:18.366Z,2.60
2022-08-30T20:37:46.916Z,2.30
2022-08-30T20:40:16.422Z,2.17
2022-08-30T20:42:46.545Z,2.42
2022-08-30T20:45:17.810Z,2.38
2022-08-30T20:47:46.496Z,2.38
2022-08-30T20:50:18.646Z,2.03
2022-08-30T20:52:47.586Z,2.03
2022-08-30T20:55:17.450Z,2.30
2022-08-30T20:57:45.765Z,2.40
2022-08-30T21:00:14.948Z,2.22
2022-08-30T21:02:47.006Z,2.25
2022-08-30T21:05:19.127Z,2.15
2022-08-30T21:07:47.988Z,2.30
2022-08-30T21:10:22.556Z,2.13
2022-08-30T21:12:52.029Z,2.20
2022-08-30T21:15:36.885Z,2.22
2022-08-30T21:18:06.546Z,2.10
2022-08-30T21:20:36.169Z,2.05
2022-08-30T21:23:04.342Z,1.77
2022-08-30T21:25:34.295Z,2.20
2022-08-30T21:28:02.938Z,2.53
2022-08-30T21:30:31.288Z,2.03
2022-08-30T21:33:00.404Z,1.95
2022-08-30T21:35:46.926Z,2.05
2022-08-30T21:38:17.023Z,1.80
2022-08-30T21:40:45.456Z,1.95
2022-08-30T21:43:13.703Z,2.20
2022-08-30T21:45:42.823Z,1.85
2022-08-30T21:48:12.584Z,1.90
2022-08-30T21:50:41.717Z,2.00
2022-08-30T21:53:10.340Z,2.50
2022-08-30T21:55:39.998Z,1.85
2022-08-30T21:58:12.145Z,1.88
2022-08-30T22:00:40.545Z,2.05
2022-08-30T22:03:08.823Z,1.67
2022-08-30T22:05:37.068Z,2.05
2022-08-30T22:08:05.245Z,1.98
2022-08-30T22:10:33.583Z,2.10
2022-08-30T22:13:03.677Z,2.17
2022-08-30T22:15:32.284Z,1.70
2022-08-30T22:18:00.817Z,2.10
2022-08-30T22:20:30.355Z,2.10
2022-08-30T22:22:58.921Z,2.03
2022-08-30T22:25:27.186Z,2.10
2022-08-30T22:27:55.350Z,2.00
2022-08-30T22:30:25.385Z,1.83
2022-08-30T22:32:55.587Z,1.88
2022-08-30T22:35:23.846Z,2.20
2022-08-30T22:37:53.389Z,2.17
2022-08-30T22:40:22.715Z,1.83
2022-08-30T22:42:51.038Z,2.15
2022-08-30T22:45:19.451Z,1.88
2022-08-30T22:47:49.278Z,2.00
2022-08-30T22:50:17.496Z,2.05
2022-08-30T22:52:45.768Z,1.83
2022-08-30T22:55:14.626Z,1.85
2022-08-30T22:57:42.937Z,1.80
2022-08-30T23:00:15.584Z,1.85
2022-08-30T23:02:44.643Z,1.85
2022-08-30T23:05:15.883Z,2.00
2022-08-30T23:07:44.363Z,1.80
2022-08-30T23:10:14.175Z,1.65
2022-08-30T23:12:43.123Z,1.90
2022-08-30T23:15:14.537Z,1.58
2022-08-30T23:17:42.887Z,1.90
2022-08-30T23:20:13.526Z,1.80
2022-08-30T23:22:41.851Z,1.63
2022-08-30T23:25:28.325Z,1.80
2022-08-30T23:28:20.727Z,1.55
2022-08-30T23:31:06.892Z,1.80
2022-08-30T23:33:52.505Z,1.42
2022-08-30T23:36:39.900Z,1.55
2022-08-30T23:39:25.505Z,1.50
2022-08-30T23:42:11.046Z,1.80
2022-08-30T23:44:56.689Z,2.00
2022-08-30T23:47:42.167Z,2.03
2022-08-30T23:50:28.317Z,1.88
2022-08-30T23:53:15.695Z,1.45
2022-08-30T23:56:01.165Z,1.63
2022-08-30T23:58:46.845Z,1.83
